WFLO2: Webbers Falls Lock & Dam & Reservoir (L&D 16)

Data processed at Thu Dec 07 2017 23:31


All information presented herein is the property of the government of the United States of America and may be revised or deleted at any time without prior notice.
Dissemination of this information without the expressed written consent of the Public Affairs Office, Tulsa District U.S. Army Corps of Engineers is strictly prohibited.
These data are gathered electronically and, as presented, have not undergone any form of quality control. These data are not guaranteed to be valid or correct.
Go to home page.
Go to station list.

Upstream stations:

Downstream station:
Previous Day
Next Day
Current Day
    
SHEF ID:       WFLO2     Webbers Falls Lock & Dam
STATION TYPE:  NAVIGATION LOCK
Normal Pool:  Bottom =   487.00, Top =   490.00

               PRECIP ELEVATION   STORAGE   TW-ELEV    INFLOW   RELEASE  AIR-TEMP  WIND-DIRWIND-SPEED REL-HUMID SOLAR-RAD   VOLTAGE  BAT-LOAD
                   in        ft     ac-ft        ft       cfs       cfs         F       deg       mph         %      W/m2      volt      volt
              Ccp-Rev   Ccp-Rev   Ccp-Rev   Ccp-Rev  Regi-Rev  Regi-Rev   Ccp-Rev   Ccp-Rev   Ccp-Rev   Ccp-Rev   Ccp-Rev   Ccp-Rev   Ccp-Rev
(US/Central)
12/05 00:00      0.00    489.77    167495    459.34       201         0     49.73    352.40      7.90     44.10      0.00     13.51     13.21
12/05 01:00      0.00    489.68    166472    459.53       156         0     47.16    345.00      7.40     46.12      0.00     13.51     13.29
12/05 02:00      0.00    489.65    166130    459.63       106         0     44.85    353.20      7.40     46.07      0.00     13.51     13.29
12/05 03:00      0.00    489.70    166699    459.62        56         0     42.96    350.90      7.80     48.52      0.00     13.51     13.29
12/05 04:00      0.00    489.81    167950    459.52        56         0     41.47    352.20      8.90     50.86      0.00     13.51     13.29
12/05 05:00      0.00    489.83    168177    459.47         6         0     40.55    345.40      7.20     53.86      0.00     13.51     13.29
12/05 06:00      0.00    489.69    166585    459.89         0         0     38.98    337.30     10.50     57.62      0.00     13.50     13.29
12/05 07:00      0.00    489.47    164084    460.16       553     17900     36.86    350.90      9.30     54.13      0.00     13.51     13.29
12/05 08:00      0.00    489.40    163288    460.15      6469     17900     36.01    342.20      7.50     53.81      0.00     13.51     13.29
12/05 09:00      0.00    489.38    163061    459.64      6469     17900     35.53    340.30      9.60     50.90     32.10     13.51     13.29
12/05 10:00      0.00    489.60    165562    459.32      6469         0     35.37    347.80      7.30     46.32     86.30     13.51     13.29
12/05 11:00      0.00    489.60    165562    459.35      6484         0     35.62    346.20      7.80     44.65     82.20     13.51     13.29
12/05 12:00      0.00    489.68    166472    459.67      5946         0     36.27    342.60      7.20     43.79    118.00     13.51     13.29
12/05 13:00      0.00    489.59    165448    459.67        46         0     37.96    335.90      7.00     40.03    249.40     13.51     13.05
12/05 14:00      0.00    489.51    164539    459.71       137         0     39.24    336.40      6.10     36.27    286.30     13.51     13.29
12/05 15:00      0.00    489.58    165335    459.59       963         0     40.19    329.40      5.80     34.85    202.60     13.51     13.29
12/05 16:00      0.00    489.60    165562    459.58      1007         0     40.75    324.00      6.60     33.83    161.80     13.51     13.29
12/05 17:00      0.00    489.63    165903    459.69      1051         0     40.39    319.70      5.00     35.77     32.70     13.51     13.29
12/05 18:00      0.00    489.48    164198    460.02      2266         0     38.68    310.40      2.00     39.51      0.00     13.51     13.29
12/05 19:00      0.00    489.28    161924    460.35      3404     18480     32.56     66.20      1.60     54.21      0.00     13.51     13.29
12/05 20:00      0.00    489.22    161241    460.13      5788     18480     29.73     77.20      1.50     64.32      0.00     13.50     13.29
12/05 21:00      0.00    489.39    163174    459.79      5729      8950     28.38     91.90      2.10     67.12      0.00     13.51     13.29
12/05 22:00      0.00    489.52    164652    459.63      5669         0     28.65    112.40      1.40     68.32      0.00     13.51     13.29
12/05 23:00      0.00    489.55    164993    459.81      4440         0     28.04    115.10      2.00     72.28      0.00     13.50     13.29